createdAt,value
2018-06-27T00:20:58.870Z,15.70
2018-06-27T00:26:20.025Z,15.70
2018-06-27T00:28:48.334Z,15.60
2018-06-27T00:31:16.653Z,15.60
2018-06-27T00:33:44.965Z,15.60
2018-06-27T00:36:13.266Z,15.60
2018-06-27T00:38:41.586Z,15.60
2018-06-27T00:41:09.953Z,15.60
2018-06-27T00:43:38.261Z,15.60
2018-06-27T00:46:06.578Z,15.60
2018-06-27T00:48:34.890Z,15.70
2018-06-27T00:51:03.201Z,15.60
2018-06-27T00:53:36.870Z,15.60
2018-06-27T00:56:05.247Z,15.50
2018-06-27T00:58:33.536Z,15.50
2018-06-27T01:01:01.845Z,15.40
2018-06-27T01:03:30.138Z,15.40
2018-06-27T01:05:58.405Z,15.40
2018-06-27T01:08:26.699Z,15.50
2018-06-27T01:10:54.997Z,15.60
2018-06-27T01:13:35.098Z,15.50
2018-06-27T01:16:03.418Z,15.50
2018-06-27T01:18:38.013Z,15.50
2018-06-27T02:15:38.945Z,15.20
2018-06-27T02:21:00.481Z,15.20
2018-06-27T02:23:28.774Z,15.10
2018-06-27T04:14:53.677Z,15.50
2018-06-27T04:17:21.989Z,15.50
2018-06-27T04:19:52.211Z,15.50
2018-06-27T04:26:39.905Z,15.50
2018-06-27T04:29:08.208Z,15.50
2018-06-27T04:31:36.517Z,15.50
2018-06-27T04:34:04.860Z,15.50
2018-06-27T04:36:33.170Z,15.50
2018-06-27T04:39:01.900Z,15.50
2018-06-27T04:41:30.201Z,15.40
2018-06-27T04:43:58.533Z,15.50
2018-06-27T04:46:26.849Z,15.50
2018-06-27T04:48:55.164Z,15.60
2018-06-27T04:51:23.471Z,15.70
2018-06-27T04:53:51.784Z,15.80
2018-06-27T04:56:20.053Z,16.00
2018-06-27T04:58:48.329Z,16.00
2018-06-27T05:01:16.593Z,16.00
2018-06-27T05:03:44.893Z,16.10
2018-06-27T05:06:13.195Z,16.10
2018-06-27T05:08:41.473Z,16.10
2018-06-27T05:11:09.789Z,16.10
2018-06-27T05:13:45.780Z,16.10
2018-06-27T05:16:14.108Z,16.10
2018-06-27T06:19:23.390Z,17.40
2018-06-27T06:21:57.764Z,17.40
2018-06-27T06:27:18.485Z,17.60
2018-06-27T06:29:46.792Z,17.70
2018-06-27T06:32:18.647Z,17.80
2018-06-27T06:34:46.904Z,17.80
2018-06-27T06:37:15.197Z,17.90
2018-06-27T06:39:43.497Z,18.00
2018-06-27T06:42:11.834Z,18.10
2018-06-27T06:44:40.172Z,18.10
2018-06-27T06:47:08.488Z,18.10
2018-06-27T06:49:36.814Z,18.10
2018-06-27T06:52:05.149Z,18.10
2018-06-27T06:54:34.053Z,18.20
2018-06-27T06:57:02.344Z,18.30
2018-06-27T06:59:30.632Z,18.20
2018-06-27T07:01:58.931Z,18.30
2018-06-27T07:04:27.222Z,18.30
2018-06-27T07:06:55.497Z,18.50
2018-06-27T07:09:23.757Z,18.70
2018-06-27T07:11:52.013Z,18.80
2018-06-27T07:17:13.490Z,19.00
2018-06-27T08:20:06.331Z,20.50
2018-06-27T08:25:42.203Z,20.60
2018-06-27T08:28:10.517Z,20.50
2018-06-27T08:30:38.973Z,20.50
2018-06-27T08:33:07.262Z,20.60
2018-06-27T08:35:35.576Z,20.80
2018-06-27T08:38:03.930Z,20.90
2018-06-27T08:40:32.270Z,21.00
2018-06-27T08:43:00.629Z,21.20
2018-06-27T08:45:28.946Z,21.40
2018-06-27T08:47:57.230Z,21.40
2018-06-27T08:50:25.602Z,21.10
2018-06-27T08:52:53.890Z,21.00
2018-06-27T08:55:22.262Z,21.20
2018-06-27T08:57:50.549Z,21.40
2018-06-27T09:00:18.801Z,21.40
2018-06-27T09:02:47.102Z,21.60
2018-06-27T09:05:15.390Z,21.70
2018-06-27T09:07:43.701Z,21.90
2018-06-27T09:10:11.974Z,21.90
2018-06-27T09:21:29.349Z,22.40
2018-06-27T10:15:37.325Z,23.70
2018-06-27T10:24:02.849Z,23.70
2018-06-27T10:26:31.136Z,24.00
2018-06-27T10:28:59.444Z,23.60
2018-06-27T10:31:27.791Z,23.30
2018-06-27T10:33:56.097Z,23.20
2018-06-27T10:36:24.413Z,23.90
2018-06-27T10:38:52.718Z,24.40
2018-06-27T10:41:21.025Z,24.90
2018-06-27T10:43:49.330Z,24.90
2018-06-27T10:46:17.637Z,24.90
2018-06-27T10:48:46.034Z,25.30
2018-06-27T10:51:14.355Z,25.90
2018-06-27T10:53:42.694Z,26.30
2018-06-27T10:56:10.965Z,26.00
2018-06-27T10:58:39.260Z,25.50
2018-06-27T11:01:07.543Z,25.40
2018-06-27T11:03:35.819Z,25.50
2018-06-27T11:06:04.478Z,26.10
2018-06-27T11:08:32.742Z,26.30
2018-06-27T11:11:01.017Z,26.90
2018-06-27T11:13:29.310Z,27.20
2018-06-27T11:16:16.341Z,27.00
2018-06-27T11:18:44.685Z,27.20
2018-06-27T11:21:12.985Z,27.60
2018-06-27T11:23:41.289Z,27.30
2018-06-27T12:17:40.318Z,28.00
2018-06-27T12:26:12.203Z,28.30
2018-06-27T12:28:40.538Z,28.70
2018-06-27T12:31:08.855Z,28.40
2018-06-27T12:33:37.169Z,28.20
2018-06-27T12:36:05.469Z,28.30
2018-06-27T12:38:33.802Z,28.50
2018-06-27T12:41:02.119Z,28.50
2018-06-27T12:43:30.442Z,28.70
2018-06-27T12:45:58.771Z,28.60
2018-06-27T12:48:27.085Z,28.50
2018-06-27T12:50:55.398Z,28.60
2018-06-27T12:53:23.730Z,28.30
2018-06-27T12:55:52.068Z,28.10
2018-06-27T12:58:20.345Z,28.10
2018-06-27T13:00:48.626Z,28.30
2018-06-27T13:03:16.933Z,28.70
2018-06-27T13:05:45.205Z,28.70
2018-06-27T13:08:13.472Z,28.90
2018-06-27T13:10:41.757Z,28.80
2018-06-27T13:16:02.543Z,28.00
2018-06-27T13:18:30.826Z,27.70
2018-06-27T13:22:04.878Z,27.80
2018-06-27T13:24:33.859Z,28.00
2018-06-27T13:27:02.144Z,28.00
2018-06-27T13:29:30.466Z,28.20
2018-06-27T13:31:58.779Z,28.30
2018-06-27T13:34:27.083Z,28.60
2018-06-27T13:36:55.394Z,28.50
2018-06-27T13:39:23.702Z,28.50
2018-06-27T13:41:52.018Z,28.20
2018-06-27T13:44:20.298Z,27.90
2018-06-27T13:46:48.606Z,28.10
2018-06-27T13:49:16.906Z,28.40
2018-06-27T13:51:45.165Z,28.60
2018-06-27T13:54:13.470Z,28.70
2018-06-27T13:56:41.742Z,28.30
2018-06-27T13:59:10.027Z,27.80
2018-06-27T14:01:38.289Z,27.80
2018-06-27T14:04:06.562Z,28.70
2018-06-27T14:06:34.831Z,28.60
2018-06-27T14:09:03.233Z,28.70
2018-06-27T14:11:31.497Z,28.40
2018-06-27T14:16:52.196Z,28.30
2018-06-27T14:19:20.477Z,28.80
2018-06-27T14:24:41.297Z,28.90
2018-06-27T14:27:09.661Z,28.80
2018-06-27T14:29:38.015Z,28.80
2018-06-27T14:32:06.342Z,29.00
2018-06-27T14:34:34.667Z,29.00
2018-06-27T14:37:03.021Z,29.00
2018-06-27T14:39:31.321Z,28.70
2018-06-27T14:41:59.644Z,28.50
2018-06-27T14:44:27.946Z,28.70
2018-06-27T14:46:56.258Z,28.70
2018-06-27T14:49:24.590Z,28.70
2018-06-27T14:51:52.902Z,29.10
2018-06-27T14:54:21.202Z,28.90
2018-06-27T14:56:49.504Z,28.90
2018-06-27T14:59:17.842Z,28.70
2018-06-27T15:01:46.113Z,28.70
2018-06-27T15:04:14.381Z,28.90
2018-06-27T15:06:42.666Z,28.70
2018-06-27T15:09:11.261Z,28.80
2018-06-27T15:11:39.554Z,28.90
2018-06-27T15:14:08.300Z,28.40
2018-06-27T15:16:36.621Z,28.40
2018-06-27T15:19:04.914Z,28.30
2018-06-27T15:21:33.402Z,27.80
2018-06-27T15:26:56.694Z,28.20
2018-06-27T15:29:25.017Z,28.40
2018-06-27T15:31:53.374Z,28.40
2018-06-27T15:34:21.699Z,28.10
2018-06-27T15:36:50.050Z,28.30
2018-06-27T15:39:18.381Z,28.10
2018-06-27T15:41:46.749Z,28.00
2018-06-27T15:44:15.182Z,28.10
2018-06-27T15:46:43.546Z,28.20
2018-06-27T15:49:11.872Z,27.80
2018-06-27T15:51:40.326Z,27.80
2018-06-27T15:54:08.625Z,27.50
2018-06-27T15:56:36.901Z,27.60
2018-06-27T15:59:05.197Z,27.70
2018-06-27T16:01:33.505Z,27.80
2018-06-27T16:04:01.808Z,27.80
2018-06-27T16:06:30.109Z,27.60
2018-06-27T16:08:58.417Z,27.60
2018-06-27T16:11:26.745Z,27.70
2018-06-27T16:13:55.037Z,27.80
2018-06-27T16:19:16.552Z,27.60
2018-06-27T16:22:08.035Z,27.70
2018-06-27T16:27:29.578Z,27.50
2018-06-27T16:29:58.847Z,27.40
2018-06-27T16:35:04.198Z,27.50
2018-06-27T16:37:32.564Z,27.60
2018-06-27T16:40:00.923Z,27.70
2018-06-27T16:42:29.250Z,27.40
2018-06-27T16:44:57.562Z,27.40
2018-06-27T16:47:34.309Z,27.10
2018-06-27T16:50:05.567Z,27.00
2018-06-27T16:52:34.008Z,26.80
2018-06-27T16:55:02.381Z,26.80
2018-06-27T16:57:30.771Z,26.80
2018-06-27T16:59:59.106Z,26.70
2018-06-27T17:02:27.587Z,26.60
2018-06-27T17:04:57.004Z,26.60
2018-06-27T17:07:27.122Z,26.60
2018-06-27T17:09:55.523Z,26.60
2018-06-27T17:12:23.979Z,26.40
2018-06-27T17:14:52.284Z,26.30
2018-06-27T17:17:20.653Z,26.10
2018-06-27T18:22:17.730Z,23.80
2018-06-27T18:24:55.758Z,23.70
2018-06-27T18:27:27.258Z,23.40
2018-06-27T18:29:55.562Z,23.10
2018-06-27T18:32:23.878Z,23.10
2018-06-27T18:34:52.182Z,23.00
2018-06-27T18:37:20.528Z,22.90
2018-06-27T18:39:48.817Z,22.80
2018-06-27T18:42:17.110Z,22.70
2018-06-27T18:44:45.411Z,22.60
2018-06-27T18:47:13.737Z,22.50
2018-06-27T18:49:56.878Z,22.40
2018-06-27T18:52:25.574Z,22.20
2018-06-27T18:54:59.127Z,22.00
2018-06-27T18:57:27.851Z,21.80
2018-06-27T18:59:56.964Z,21.70
2018-06-27T19:02:25.493Z,21.60
2018-06-27T19:04:53.910Z,21.50
2018-06-27T19:07:29.746Z,21.30
2018-06-27T19:09:59.516Z,21.10
2018-06-27T19:12:33.149Z,21.00
2018-06-27T19:21:16.703Z,20.60
2018-06-27T19:29:33.890Z,20.30
2018-06-27T19:32:02.269Z,20.20
2018-06-27T19:34:30.612Z,20.10
2018-06-27T19:36:58.977Z,20.00
2018-06-27T19:39:37.463Z,20.00
2018-06-27T19:41:55.687Z,19.80
2018-06-27T19:44:24.024Z,19.70
2018-06-27T19:46:52.453Z,19.60
2018-06-27T19:49:20.780Z,19.60
2018-06-27T19:51:49.119Z,19.50
2018-06-27T19:54:17.464Z,19.40
2018-06-27T19:56:45.813Z,19.30
2018-06-27T19:59:14.134Z,19.20
2018-06-27T20:01:42.428Z,19.10
2018-06-27T20:04:10.748Z,19.00
2018-06-27T20:06:39.050Z,19.00
2018-06-27T20:09:08.263Z,18.80
2018-06-27T20:11:36.552Z,18.80
2018-06-27T20:25:35.946Z,18.40
2018-06-27T20:28:04.331Z,18.30
2018-06-27T20:30:32.712Z,18.20
2018-06-27T20:33:01.117Z,18.20
2018-06-27T20:35:29.441Z,18.20
2018-06-27T20:37:57.777Z,18.20
2018-06-27T20:40:26.122Z,18.20
2018-06-27T20:42:54.477Z,18.10
2018-06-27T20:45:22.790Z,18.00
2018-06-27T20:47:51.130Z,17.90
2018-06-27T20:50:19.457Z,18.00
2018-06-27T20:52:47.784Z,17.80
2018-06-27T20:55:16.110Z,17.90
2018-06-27T20:57:44.411Z,17.80
2018-06-27T21:00:12.693Z,17.80
2018-06-27T21:02:41.023Z,17.80
2018-06-27T21:05:09.315Z,17.50
2018-06-27T21:07:37.601Z,17.50
2018-06-27T21:10:06.022Z,17.50
2018-06-27T21:12:34.305Z,17.50
2018-06-27T21:20:54.877Z,17.40
2018-06-27T21:26:16.519Z,17.40
2018-06-27T21:28:44.861Z,17.20
2018-06-27T21:31:13.205Z,17.00
2018-06-27T21:33:41.513Z,16.90
2018-06-27T21:36:09.845Z,16.90
2018-06-27T21:38:38.169Z,16.80
2018-06-27T21:41:06.548Z,16.90
2018-06-27T21:43:34.859Z,17.10
2018-06-27T21:46:03.183Z,17.10
2018-06-27T21:48:31.511Z,17.20
2018-06-27T21:50:59.833Z,17.10
2018-06-27T21:53:28.851Z,17.10
2018-06-27T21:55:57.145Z,17.00
2018-06-27T21:58:25.418Z,16.90
2018-06-27T22:00:53.729Z,16.80
2018-06-27T22:03:22.022Z,16.80
2018-06-27T22:05:50.289Z,16.70
2018-06-27T22:08:18.579Z,16.60
2018-06-27T22:10:46.876Z,16.50
2018-06-27T22:13:15.186Z,16.50
2018-06-27T22:18:37.028Z,16.40
2018-06-27T22:24:08.234Z,17.10
2018-06-27T22:26:36.586Z,16.30
2018-06-27T22:29:04.967Z,16.40
2018-06-27T22:31:33.301Z,16.50
2018-06-27T22:34:01.613Z,16.60
2018-06-27T22:36:29.942Z,16.60
2018-06-27T22:38:58.289Z,16.50
2018-06-27T22:41:26.613Z,16.30
2018-06-27T22:43:54.946Z,16.10
2018-06-27T22:46:23.261Z,16.10
2018-06-27T22:48:51.559Z,16.10
2018-06-27T22:51:19.874Z,16.00
2018-06-27T22:53:48.203Z,16.00
2018-06-27T22:56:16.483Z,15.90
2018-06-27T22:58:44.753Z,15.90
2018-06-27T23:01:13.033Z,15.80
2018-06-27T23:03:41.309Z,15.70
2018-06-27T23:06:09.618Z,15.70
2018-06-27T23:08:38.062Z,15.60
2018-06-27T23:11:06.367Z,15.50
2018-06-27T23:13:34.702Z,15.50
2018-06-27T23:16:03.006Z,15.40
2018-06-27T23:24:27.939Z,15.40
2018-06-27T23:26:56.250Z,15.40
2018-06-27T23:29:24.559Z,15.30
2018-06-27T23:31:52.909Z,15.30
2018-06-27T23:34:21.257Z,15.30
2018-06-27T23:36:49.588Z,15.30
2018-06-27T23:39:17.911Z,15.30
2018-06-27T23:41:46.217Z,15.40
2018-06-27T23:44:14.533Z,15.40
2018-06-27T23:46:42.862Z,15.50
2018-06-27T23:49:11.173Z,15.50
2018-06-27T23:51:39.482Z,15.50
2018-06-27T23:54:07.841Z,15.60
2018-06-27T23:56:36.134Z,15.60
2018-06-27T23:59:04.513Z,15.50
